Time;durP1;ratioP1;P1;durP2;ratioP2;P2;SDS_P1;SDS_P2;PMS_P1;PMS_P2;Temp;Humidity;BMP_temperature;BMP_pressure;BME280_temperature;BME280_humidity;BME280_pressure;Samples;Min_cycle;Max_cycle;Signal;HPM_P1;HPM_P2
2023/05/14 00:00:53;;;;;;;9.50;4.25;;;13.30;99.90;;;;;;4213863;28;20173;-83
2023/05/14 00:02:53;;;;;;;8.68;4.43;;;13.20;99.90;;;;;;4214163;28;20475;-83
2023/05/14 00:04:54;;;;;;;8.10;4.30;;;13.20;99.90;;;;;;4213437;28;20461;-83
2023/05/14 00:06:55;;;;;;;13.27;5.18;;;13.20;99.90;;;;;;4226890;28;20043;-82
2023/05/14 00:08:56;;;;;;;8.75;4.43;;;13.20;99.90;;;;;;4213934;28;20052;-82
2023/05/14 00:10:57;;;;;;;8.50;3.85;;;13.20;99.90;;;;;;4230317;28;20047;-82
2023/05/14 00:12:57;;;;;;;9.98;4.00;;;13.10;99.90;;;;;;4231112;28;20071;-82
2023/05/14 00:14:58;;;;;;;8.40;4.32;;;13.10;99.90;;;;;;4230186;28;20048;-83
2023/05/14 00:16:59;;;;;;;10.63;4.18;;;13.10;99.90;;;;;;4230657;28;20039;-83
2023/05/14 00:18:59;;;;;;;8.13;3.85;;;13.10;99.90;;;;;;4231744;28;20181;-83
2023/05/14 00:21:00;;;;;;;7.38;3.97;;;13.10;99.90;;;;;;4230455;28;20061;-82
2023/05/14 00:23:01;;;;;;;9.50;3.72;;;13.00;99.90;;;;;;4231290;28;20072;-83
2023/05/14 00:25:02;;;;;;;11.32;3.70;;;13.00;99.90;;;;;;4230763;28;20059;-83
2023/05/14 00:27:03;;;;;;;7.78;4.43;;;13.00;99.90;;;;;;4197554;28;20059;-83
2023/05/14 00:29:04;;;;;;;6.55;3.92;;;13.00;99.90;;;;;;4213071;28;20048;-83
2023/05/14 00:31:04;;;;;;;9.38;3.67;;;12.90;99.90;;;;;;4231457;28;20501;-83
2023/05/14 00:33:06;;;;;;;9.88;4.00;;;12.90;99.90;;;;;;4230806;28;20122;-83
2023/05/14 00:35:07;;;;;;;9.05;3.85;;;12.90;99.90;;;;;;4232169;28;20040;-83
2023/05/14 00:37:08;;;;;;;8.13;3.78;;;12.80;99.90;;;;;;4213730;28;20527;-83
2023/05/14 00:39:09;;;;;;;10.90;3.90;;;12.80;99.90;;;;;;4231852;28;20043;-83
2023/05/14 00:41:09;;;;;;;7.15;4.35;;;12.80;99.90;;;;;;4226671;28;20086;-83
2023/05/14 00:43:11;;;;;;;11.50;5.28;;;12.70;99.90;;;;;;4213530;28;20078;-83
2023/05/14 00:45:12;;;;;;;10.30;3.88;;;12.70;99.90;;;;;;4214251;28;20032;-83
2023/05/14 00:47:13;;;;;;;8.93;4.00;;;12.70;99.90;;;;;;4213496;28;20618;-82
2023/05/14 00:49:14;;;;;;;11.82;4.45;;;12.70;99.90;;;;;;4231323;28;20040;-83
2023/05/14 00:51:16;;;;;;;7.50;4.03;;;12.60;99.90;;;;;;4213629;28;20050;-83
2023/05/14 00:53:18;;;;;;;6.40;3.58;;;12.60;99.90;;;;;;4214319;28;20066;-83
2023/05/14 00:55:20;;;;;;;8.25;3.67;;;12.60;99.90;;;;;;4232243;28;20043;-82
2023/05/14 00:57:21;;;;;;;7.47;3.65;;;12.60;99.90;;;;;;4213781;28;20056;-82
2023/05/14 00:59:21;;;;;;;11.80;4.45;;;12.60;99.90;;;;;;4222598;28;20103;-82
2023/05/14 01:01:22;;;;;;;9.45;3.72;;;12.60;99.90;;;;;;4230067;28;20047;-82
2023/05/14 01:03:23;;;;;;;16.63;6.50;;;12.60;99.90;;;;;;4231889;28;20109;-83
2023/05/14 01:05:28;;;;;;;8.27;3.80;;;12.60;99.90;;;;;;4229844;28;20165;-83
2023/05/14 01:07:35;;;;;;;8.05;3.80;;;12.50;99.90;;;;;;4231211;28;20044;-83
2023/05/14 01:09:52;;;;;;;9.40;4.22;;;12.50;99.90;;;;;;4249341;28;20039;-83
2023/05/14 01:12:17;;;;;;;7.75;4.22;;;12.50;99.90;;;;;;4230840;28;20098;-83
2023/05/14 01:14:47;;;;;;;12.32;3.85;;;12.40;99.90;;;;;;4248843;28;20066;-83
2023/05/14 01:16:51;;;;;;;10.85;4.32;;;12.40;99.90;;;;;;4225527;28;20833;-83
2023/05/14 01:18:54;;;;;;;7.30;3.92;;;12.40;99.90;;;;;;4232340;28;20073;-83
2023/05/14 01:20:55;;;;;;;8.50;3.72;;;12.30;99.90;;;;;;4231738;28;20142;-83
2023/05/14 01:22:55;;;;;;;8.85;3.50;;;12.30;99.90;;;;;;4219300;28;20043;-83
2023/05/14 01:24:56;;;;;;;8.50;3.75;;;12.30;99.90;;;;;;4213583;28;20095;-83
2023/05/14 01:27:13;;;;;;;7.82;2.97;;;12.30;99.90;;;;;;4248042;28;20035;-83
2023/05/14 01:29:21;;;;;;;10.02;3.60;;;12.30;99.90;;;;;;4212848;28;20163;-82
2023/05/14 01:31:27;;;;;;;8.48;3.28;;;12.20;99.90;;;;;;4230144;28;20044;-82
2023/05/14 01:33:32;;;;;;;6.07;3.50;;;12.20;99.90;;;;;;4247516;28;20543;-84
2023/05/14 01:35:33;;;;;;;6.45;3.45;;;12.20;99.90;;;;;;4236031;28;20054;-83
2023/05/14 01:37:35;;;;;;;8.75;3.00;;;12.20;99.90;;;;;;4212623;28;20087;-83
2023/05/14 01:39:37;;;;;;;7.07;3.78;;;12.20;99.90;;;;;;4213460;28;20382;-83
2023/05/14 01:41:41;;;;;;;9.80;4.18;;;12.20;99.90;;;;;;4213583;28;20538;-83
2023/05/14 01:43:43;;;;;;;9.55;3.53;;;12.20;99.90;;;;;;4213378;28;20044;-83
2023/05/14 01:45:45;;;;;;;10.70;3.33;;;12.20;99.90;;;;;;4214827;28;20090;-83
2023/05/14 01:47:46;;;;;;;6.82;3.45;;;12.20;99.90;;;;;;4215472;28;20123;-83
2023/05/14 01:49:47;;;;;;;10.07;3.58;;;12.20;99.90;;;;;;4235475;28;20088;-83
2023/05/14 01:51:48;;;;;;;5.45;3.35;;;12.10;99.90;;;;;;4199694;28;20078;-83
2023/05/14 01:53:49;;;;;;;8.95;3.45;;;12.10;99.90;;;;;;4211676;28;20056;-83
2023/05/14 01:55:50;;;;;;;7.75;4.60;;;12.10;99.90;;;;;;4251318;27;20043;-83
2023/05/14 01:57:51;;;;;;;11.85;3.90;;;12.10;99.90;;;;;;4251017;27;20092;-83
2023/05/14 01:59:52;;;;;;;11.20;3.90;;;12.10;99.90;;;;;;4217184;28;20105;-83
2023/05/14 02:01:56;;;;;;;5.72;3.40;;;12.00;99.90;;;;;;4232255;28;20081;-83
2023/05/14 02:03:56;;;;;;;5.35;3.40;;;12.00;99.90;;;;;;4234135;28;20044;-83
2023/05/14 02:05:57;;;;;;;7.68;3.60;;;12.00;99.90;;;;;;4251619;27;20035;-82
2023/05/14 02:07:58;;;;;;;8.82;3.72;;;12.00;99.90;;;;;;4233720;28;20094;-82
2023/05/14 02:09:58;;;;;;;9.52;3.50;;;12.00;99.90;;;;;;4245362;27;20047;-82
2023/05/14 02:11:59;;;;;;;9.25;3.55;;;11.90;99.90;;;;;;4215943;28;20058;-82
2023/05/14 02:14:00;;;;;;;6.95;3.55;;;11.90;99.90;;;;;;4216718;28;20047;-83
2023/05/14 02:16:01;;;;;;;9.27;4.65;;;11.90;99.90;;;;;;4225992;28;20490;-82
2023/05/14 02:18:02;;;;;;;9.70;4.55;;;11.90;99.90;;;;;;4233075;28;20039;-83
2023/05/14 02:20:04;;;;;;;10.00;4.50;;;11.90;99.90;;;;;;4232304;28;20491;-82
2023/05/14 02:22:04;;;;;;;9.75;4.57;;;11.90;99.90;;;;;;4251510;27;20040;-82
2023/05/14 02:24:05;;;;;;;11.40;5.65;;;11.80;99.90;;;;;;4232389;28;20135;-83
2023/05/14 02:26:08;;;;;;;10.45;5.15;;;11.80;99.90;;;;;;4232996;28;20395;-82
2023/05/14 02:28:09;;;;;;;10.20;4.70;;;11.80;99.90;;;;;;4251229;27;20047;-83
2023/05/14 02:30:10;;;;;;;11.88;4.85;;;11.80;99.90;;;;;;4232675;28;20132;-83
2023/05/14 02:32:11;;;;;;;10.88;5.97;;;11.80;99.90;;;;;;4243395;27;20031;-83
2023/05/14 02:34:11;;;;;;;12.88;6.43;;;11.80;99.90;;;;;;4209506;28;20044;-82
2023/05/14 02:36:12;;;;;;;13.65;5.07;;;11.80;99.90;;;;;;4250917;27;20076;-82
2023/05/14 02:38:13;;;;;;;8.98;4.80;;;11.70;99.90;;;;;;4250248;27;20486;-83
2023/05/14 02:40:16;;;;;;;9.82;5.38;;;11.80;99.90;;;;;;4250652;27;20043;-82
2023/05/14 02:42:17;;;;;;;12.18;4.95;;;11.70;99.90;;;;;;4232844;28;20039;-83
2023/05/14 02:44:18;;;;;;;12.13;5.47;;;11.70;99.90;;;;;;4215125;28;20128;-82
2023/05/14 02:46:18;;;;;;;10.50;5.57;;;11.70;99.90;;;;;;4250805;27;20099;-83
2023/05/14 02:48:19;;;;;;;11.82;5.32;;;11.70;99.90;;;;;;4231869;28;20051;-83
2023/05/14 02:50:20;;;;;;;8.73;5.28;;;11.70;99.90;;;;;;4230648;28;20122;-83
2023/05/14 02:52:20;;;;;;;11.20;5.57;;;11.70;99.90;;;;;;4217744;28;20186;-83
2023/05/14 02:54:21;;;;;;;10.70;5.10;;;11.70;99.90;;;;;;4215929;28;20036;-82
2023/05/14 02:56:22;;;;;;;14.10;5.60;;;11.60;99.90;;;;;;4238612;27;20084;-82
2023/05/14 02:58:23;;;;;;;14.07;6.07;;;11.70;99.90;;;;;;4250119;27;20047;-82
2023/05/14 03:00:23;;;;;;;11.38;5.20;;;11.60;99.90;;;;;;4250798;27;20043;-82
2023/05/14 03:02:25;;;;;;;13.32;6.70;;;11.60;99.90;;;;;;4214650;28;20055;-82
2023/05/14 03:04:26;;;;;;;16.42;6.40;;;11.60;99.90;;;;;;4232958;28;20040;-82
2023/05/14 03:06:27;;;;;;;9.90;5.50;;;11.60;99.90;;;;;;4250651;27;20394;-82
2023/05/14 03:08:27;;;;;;;15.93;5.82;;;11.60;99.90;;;;;;4232876;28;20582;-83
2023/05/14 03:10:28;;;;;;;12.73;6.20;;;11.50;99.90;;;;;;4231260;28;20055;-83
2023/05/14 03:12:29;;;;;;;16.30;5.55;;;11.60;99.90;;;;;;4232567;28;20130;-82
2023/05/14 03:14:30;;;;;;;14.52;6.25;;;11.50;99.90;;;;;;4250210;27;20073;-83
2023/05/14 03:16:31;;;;;;;15.57;5.82;;;11.50;99.90;;;;;;4232085;28;20495;-83
2023/05/14 03:18:33;;;;;;;17.05;6.07;;;11.50;99.90;;;;;;4232537;28;20052;-82
2023/05/14 03:20:34;;;;;;;12.70;5.55;;;11.50;99.90;;;;;;4250046;27;20043;-83
2023/05/14 03:22:35;;;;;;;13.48;5.53;;;11.40;99.90;;;;;;4232049;28;20126;-83
2023/05/14 03:24:39;;;;;;;11.88;6.07;;;11.40;99.90;;;;;;4233156;28;20052;-83
2023/05/14 03:26:40;;;;;;;11.90;5.82;;;11.40;99.90;;;;;;4230565;28;20076;-83
2023/05/14 03:28:40;;;;;;;13.38;6.30;;;11.40;99.90;;;;;;4229573;28;20825;-84
2023/05/14 03:30:41;;;;;;;13.63;5.95;;;11.40;99.90;;;;;;4198655;28;20048;-83
2023/05/14 03:32:44;;;;;;;10.82;4.80;;;11.40;99.90;;;;;;4216727;28;20042;-82
2023/05/14 03:34:45;;;;;;;16.45;6.20;;;11.40;99.90;;;;;;4215048;28;20044;-83
2023/05/14 03:36:47;;;;;;;11.75;5.30;;;11.40;99.90;;;;;;4215895;28;20484;-83
2023/05/14 03:38:47;;;;;;;14.75;5.43;;;11.30;99.90;;;;;;4214725;28;20488;-82
2023/05/14 03:40:48;;;;;;;10.60;5.72;;;11.30;99.90;;;;;;4214938;28;20062;-82
2023/05/14 03:42:49;;;;;;;14.85;6.43;;;11.30;99.90;;;;;;4214925;28;20052;-83
2023/05/14 03:44:50;;;;;;;18.13;7.10;;;11.20;99.90;;;;;;4214732;28;20083;-83
2023/05/14 03:46:51;;;;;;;14.85;7.07;;;11.20;99.90;;;;;;4221054;28;20495;-82
2023/05/14 03:48:51;;;;;;;12.45;6.53;;;11.20;99.90;;;;;;4232407;28;20048;-82
2023/05/14 03:50:53;;;;;;;14.00;6.88;;;11.20;99.90;;;;;;4231930;28;20059;-83
2023/05/14 03:52:55;;;;;;;14.73;6.22;;;11.30;99.90;;;;;;4231234;28;20463;-83
2023/05/14 03:54:55;;;;;;;12.15;6.97;;;11.20;99.90;;;;;;4232796;28;20047;-81
2023/05/14 03:56:57;;;;;;;18.20;6.65;;;11.20;99.90;;;;;;4231890;28;20054;-83
2023/05/14 03:58:58;;;;;;;12.63;5.75;;;11.20;99.90;;;;;;4231345;28;20086;-83
2023/05/14 04:00:59;;;;;;;13.18;5.88;;;11.30;99.90;;;;;;4229466;28;20051;-83
2023/05/14 04:03:00;;;;;;;15.48;6.63;;;11.30;99.90;;;;;;4214144;28;20056;-82
2023/05/14 04:05:03;;;;;;;13.65;6.05;;;11.30;99.90;;;;;;4218511;28;20040;-82
2023/05/14 04:07:03;;;;;;;12.65;6.43;;;11.30;99.90;;;;;;4215019;28;20083;-83
2023/05/14 04:09:04;;;;;;;12.73;6.57;;;11.30;99.90;;;;;;4214308;28;20043;-82
2023/05/14 04:11:05;;;;;;;18.38;5.60;;;11.30;99.90;;;;;;4213875;28;20074;-82
2023/05/14 04:13:06;;;;;;;15.60;5.13;;;11.30;99.90;;;;;;4214727;28;20056;-83
2023/05/14 04:15:07;;;;;;;6.72;4.20;;;11.30;99.90;;;;;;4197655;28;20512;-84
2023/05/14 04:17:08;;;;;;;13.65;5.38;;;11.30;99.90;;;;;;4213068;28;20127;-84
2023/05/14 04:19:09;;;;;;;8.82;3.97;;;11.30;99.90;;;;;;4213945;28;20424;-83
2023/05/14 04:21:09;;;;;;;18.67;5.20;;;11.30;99.90;;;;;;4213944;28;20454;-84
2023/05/14 04:23:10;;;;;;;14.98;4.68;;;11.30;99.90;;;;;;4213844;28;20079;-83
2023/05/14 04:25:11;;;;;;;13.38;4.20;;;11.40;99.90;;;;;;4204611;28;20044;-84
2023/05/14 04:27:19;;;;;;;12.95;4.57;;;11.40;99.90;;;;;;4214531;28;20048;-84
2023/05/14 04:29:21;;;;;;;14.15;4.53;;;11.40;99.90;;;;;;4215377;28;20589;-84
2023/05/14 04:31:22;;;;;;;10.23;4.20;;;11.40;99.90;;;;;;4214018;28;20040;-84
2023/05/14 04:33:22;;;;;;;11.25;5.57;;;11.50;99.90;;;;;;4214076;28;20055;-83
2023/05/14 04:35:23;;;;;;;10.60;4.25;;;11.50;99.90;;;;;;4214858;28;20039;-83
2023/05/14 04:37:24;;;;;;;11.57;4.00;;;11.50;99.90;;;;;;4214002;28;20036;-84
2023/05/14 04:39:26;;;;;;;11.98;4.57;;;11.40;99.90;;;;;;4198090;28;20085;-83
2023/05/14 04:41:27;;;;;;;12.77;4.43;;;11.50;99.90;;;;;;4197886;28;20045;-84
2023/05/14 04:43:28;;;;;;;13.63;4.40;;;11.50;99.90;;;;;;4209798;28;20062;-84
2023/05/14 04:45:28;;;;;;;15.52;4.35;;;11.50;99.90;;;;;;4215701;28;20052;-84
2023/05/14 04:47:31;;;;;;;11.95;4.40;;;11.50;99.90;;;;;;4214683;28;20529;-83
2023/05/14 04:49:32;;;;;;;16.77;4.47;;;11.60;99.90;;;;;;4213782;28;20048;-84
2023/05/14 04:51:34;;;;;;;12.38;4.85;;;11.60;99.90;;;;;;4216264;28;20036;-84
2023/05/14 04:53:34;;;;;;;18.63;6.07;;;11.60;99.90;;;;;;4215612;28;20079;-83
2023/05/14 04:55:36;;;;;;;14.88;5.03;;;11.70;99.90;;;;;;4214431;28;20059;-83
2023/05/14 04:57:36;;;;;;;13.05;4.68;;;11.70;99.90;;;;;;4215819;28;20115;-84
2023/05/14 04:59:37;;;;;;;13.77;5.07;;;11.80;99.90;;;;;;4214989;28;20044;-84
2023/05/14 05:01:38;;;;;;;14.32;5.47;;;11.80;99.90;;;;;;4214309;28;20067;-82
2023/05/14 05:03:39;;;;;;;13.50;4.70;;;11.90;99.90;;;;;;4213473;28;20058;-84
2023/05/14 05:05:39;;;;;;;17.73;5.38;;;11.90;99.90;;;;;;4214350;28;20496;-83
2023/05/14 05:07:40;;;;;;;14.32;5.30;;;11.90;99.90;;;;;;4200764;28;20059;-84
2023/05/14 05:09:42;;;;;;;15.35;4.45;;;12.00;99.90;;;;;;4197813;28;20044;-84
2023/05/14 05:11:42;;;;;;;15.63;5.72;;;12.00;99.90;;;;;;4198291;28;20055;-84
2023/05/14 05:13:43;;;;;;;15.55;5.20;;;12.00;99.90;;;;;;4198023;28;20115;-84
2023/05/14 05:15:45;;;;;;;14.52;5.35;;;12.10;99.90;;;;;;4198747;28;20033;-84
2023/05/14 05:17:45;;;;;;;14.20;5.22;;;12.10;99.90;;;;;;4213043;28;20047;-84
2023/05/14 05:19:46;;;;;;;11.05;5.15;;;12.10;99.90;;;;;;4199761;28;20054;-84
2023/05/14 05:21:47;;;;;;;13.25;5.20;;;12.20;99.90;;;;;;4201169;28;20045;-84
2023/05/14 05:23:48;;;;;;;15.80;5.38;;;12.20;99.90;;;;;;4211599;28;20086;-83
2023/05/14 05:25:49;;;;;;;17.75;5.63;;;12.30;99.90;;;;;;4216165;28;20193;-83
2023/05/14 05:27:51;;;;;;;13.02;5.30;;;12.40;99.90;;;;;;4218627;28;20111;-83
2023/05/14 05:29:52;;;;;;;15.00;5.90;;;12.40;99.90;;;;;;4217120;28;20048;-84
2023/05/14 05:31:53;;;;;;;14.15;5.47;;;12.50;99.90;;;;;;4217775;28;20396;-84
2023/05/14 05:33:54;;;;;;;14.82;5.28;;;12.50;99.90;;;;;;4217378;28;20048;-84
2023/05/14 05:35:55;;;;;;;15.82;5.53;;;12.60;99.90;;;;;;4234531;28;20534;-84
2023/05/14 05:37:57;;;;;;;15.45;5.57;;;12.70;99.90;;;;;;4234873;28;20048;-84
2023/05/14 05:39:58;;;;;;;11.13;5.20;;;12.80;99.90;;;;;;4217143;28;20400;-84
2023/05/14 05:41:58;;;;;;;16.05;5.13;;;12.80;99.90;;;;;;4216686;28;20093;-84
2023/05/14 05:44:00;;;;;;;15.55;6.30;;;12.90;99.90;;;;;;4217945;28;20569;-84
2023/05/14 05:46:01;;;;;;;12.20;5.68;;;13.00;99.90;;;;;;4216306;28;20496;-84
2023/05/14 05:48:01;;;;;;;16.38;6.28;;;13.00;99.90;;;;;;4217581;28;20046;-84
2023/05/14 05:50:02;;;;;;;17.23;6.68;;;13.10;99.90;;;;;;4216818;28;20044;-84
2023/05/14 05:52:03;;;;;;;20.98;6.18;;;13.20;99.90;;;;;;4231869;28;20039;-84
2023/05/14 05:54:04;;;;;;;17.48;5.90;;;13.30;99.90;;;;;;4220924;28;20218;-84
2023/05/14 05:56:05;;;;;;;17.02;6.15;;;13.40;99.90;;;;;;4216605;28;20051;-84
2023/05/14 05:58:06;;;;;;;10.48;4.97;;;13.60;99.90;;;;;;4217486;28;20067;-84
2023/05/14 06:00:16;;;;;;;16.25;4.75;;;13.60;99.90;;;;;;4217999;28;20047;-84
2023/05/14 06:02:18;;;;;;;15.20;4.60;;;13.70;99.90;;;;;;4216258;28;20074;-84
2023/05/14 06:04:20;;;;;;;12.90;4.55;;;13.80;99.90;;;;;;4215779;28;20048;-84
2023/05/14 06:06:20;;;;;;;14.10;4.57;;;14.00;99.90;;;;;;4216395;28;20415;-84
2023/05/14 06:08:22;;;;;;;13.48;4.40;;;14.00;99.90;;;;;;4216638;28;20047;-84
2023/05/14 06:10:23;;;;;;;14.68;4.40;;;14.10;99.90;;;;;;4217532;28;20496;-84
2023/05/14 06:12:23;;;;;;;11.80;4.22;;;14.20;99.90;;;;;;4228829;28;20153;-84
2023/05/14 06:14:24;;;;;;;14.60;3.97;;;14.30;99.90;;;;;;4218420;28;20540;-84
2023/05/14 06:16:25;;;;;;;13.48;5.53;;;14.30;99.90;;;;;;4218099;28;20434;-84
2023/05/14 06:18:26;;;;;;;16.80;5.25;;;14.40;99.90;;;;;;4216933;28;20083;-84
2023/05/14 06:20:28;;;;;;;11.73;4.05;;;14.60;99.90;;;;;;4200000;28;20076;-84
2023/05/14 06:22:29;;;;;;;18.83;4.70;;;14.60;99.90;;;;;;4216684;28;20048;-84
2023/05/14 06:24:31;;;;;;;17.52;5.60;;;14.70;99.90;;;;;;4234214;28;20078;-84
2023/05/14 06:26:32;;;;;;;29.05;6.00;;;14.80;99.90;;;;;;4217107;28;20050;-84
2023/05/14 06:28:33;;;;;;;13.20;5.00;;;14.80;99.90;;;;;;4231938;28;20039;-84
2023/05/14 06:30:34;;;;;;;10.30;4.57;;;14.90;99.90;;;;;;4247156;27;20069;-84
2023/05/14 06:32:34;;;;;;;15.15;4.78;;;14.90;99.90;;;;;;4230111;28;20082;-84
2023/05/14 06:34:36;;;;;;;13.32;4.03;;;14.90;99.90;;;;;;4251306;27;20509;-84
2023/05/14 06:36:37;;;;;;;13.63;3.92;;;14.90;99.90;;;;;;4232125;28;20082;-83
2023/05/14 06:38:37;;;;;;;17.63;4.88;;;15.00;99.90;;;;;;4251293;27;20035;-84
2023/05/14 06:40:38;;;;;;;9.35;3.90;;;15.00;99.90;;;;;;4232569;28;20135;-84
2023/05/14 06:42:39;;;;;;;13.57;5.10;;;15.10;99.90;;;;;;4250906;27;20049;-84
2023/05/14 06:44:41;;;;;;;9.93;4.05;;;15.20;99.90;;;;;;4251598;27;20076;-82
2023/05/14 06:46:41;;;;;;;11.15;3.95;;;15.20;99.90;;;;;;4232242;28;20094;-83
2023/05/14 06:48:42;;;;;;;17.55;5.40;;;15.30;99.90;;;;;;4232247;28;20047;-83
2023/05/14 06:50:44;;;;;;;15.07;4.70;;;15.20;99.90;;;;;;4215588;28;20063;-83
2023/05/14 06:52:45;;;;;;;12.45;4.32;;;15.30;99.90;;;;;;4215980;28;20044;-83
2023/05/14 06:54:46;;;;;;;18.65;4.93;;;15.40;99.90;;;;;;4233435;28;20046;-84
2023/05/14 06:56:49;;;;;;;12.30;4.07;;;15.40;99.90;;;;;;4216011;28;20072;-84
2023/05/14 06:58:49;;;;;;;9.45;4.70;;;15.50;99.90;;;;;;4216345;28;20048;-84
2023/05/14 07:00:50;;;;;;;8.15;4.20;;;15.50;99.90;;;;;;4215048;28;20044;-83
2023/05/14 07:02:51;;;;;;;7.43;4.13;;;15.60;99.90;;;;;;4199052;28;20053;-84
2023/05/14 07:04:51;;;;;;;16.50;5.32;;;15.70;99.90;;;;;;4232638;28;20502;-84
2023/05/14 07:06:52;;;;;;;10.27;4.18;;;15.80;99.90;;;;;;4217862;28;20043;-84
2023/05/14 07:08:54;;;;;;;7.78;4.15;;;15.90;99.90;;;;;;4220791;28;20068;-84
2023/05/14 07:10:56;;;;;;;15.00;4.32;;;16.00;99.90;;;;;;4233326;28;20075;-84
2023/05/14 07:12:57;;;;;;;10.52;4.93;;;16.10;99.90;;;;;;4250697;27;20114;-84
2023/05/14 07:14:57;;;;;;;9.48;4.00;;;16.20;99.90;;;;;;4250322;27;20494;-84
2023/05/14 07:16:59;;;;;;;9.98;4.20;;;16.40;99.90;;;;;;4215275;28;20059;-84
2023/05/14 07:19:00;;;;;;;17.20;5.55;;;16.50;99.90;;;;;;4231119;28;20515;-84
2023/05/14 07:21:01;;;;;;;11.18;3.85;;;16.10;99.90;;;;;;4232868;28;20051;-84
2023/05/14 07:23:01;;;;;;;14.55;4.45;;;16.60;99.90;;;;;;4249643;27;20049;-83
2023/05/14 07:25:02;;;;;;;10.35;4.60;;;16.70;99.90;;;;;;4232303;28;20104;-84
2023/05/14 07:27:03;;;;;;;11.63;4.13;;;16.80;99.90;;;;;;4225210;28;20077;-84
2023/05/14 07:29:04;;;;;;;14.40;4.50;;;16.80;99.90;;;;;;4232120;28;20044;-84
2023/05/14 07:31:07;;;;;;;10.82;4.15;;;16.80;99.90;;;;;;4232583;28;20047;-83
2023/05/14 07:33:08;;;;;;;12.68;4.50;;;16.80;99.90;;;;;;4250073;27;20043;-84
2023/05/14 07:35:10;;;;;;;10.07;4.38;;;16.80;99.90;;;;;;4232643;28;20053;-83
2023/05/14 07:37:11;;;;;;;8.50;3.83;;;16.90;99.90;;;;;;4249600;27;20152;-84
2023/05/14 07:39:12;;;;;;;13.75;5.35;;;16.90;99.90;;;;;;4231863;28;20071;-84
2023/05/14 07:41:13;;;;;;;8.65;3.83;;;16.90;99.90;;;;;;4231769;28;20055;-84
2023/05/14 07:43:14;;;;;;;16.73;4.85;;;17.00;99.90;;;;;;4227380;28;20092;-84
2023/05/14 07:45:15;;;;;;;11.60;5.00;;;17.00;99.90;;;;;;4232543;28;20055;-83
2023/05/14 07:47:15;;;;;;;11.45;4.97;;;17.00;99.90;;;;;;4221150;28;20044;-83
2023/05/14 07:49:17;;;;;;;14.88;4.95;;;17.10;99.90;;;;;;4233137;28;20043;-83
2023/05/14 07:51:18;;;;;;;18.35;6.35;;;17.00;99.90;;;;;;4198535;28;20044;-83
2023/05/14 07:53:18;;;;;;;12.05;4.53;;;17.00;99.90;;;;;;4216416;28;20135;-83
2023/05/14 07:55:21;;;;;;;9.85;4.85;;;17.00;99.90;;;;;;4232684;28;20071;-82
2023/05/14 07:57:21;;;;;;;13.45;4.88;;;16.90;99.90;;;;;;4238297;27;20039;-83
2023/05/14 07:59:22;;;;;;;11.23;4.60;;;16.80;99.90;;;;;;4227267;28;20094;-83
2023/05/14 08:01:23;;;;;;;9.52;4.38;;;16.80;99.90;;;;;;4219695;28;20043;-84
2023/05/14 08:03:23;;;;;;;9.45;4.60;;;16.90;99.90;;;;;;4245239;27;20085;-83
2023/05/14 08:05:25;;;;;;;7.20;4.60;;;16.90;99.90;;;;;;4241316;27;20042;-83
2023/05/14 08:07:28;;;;;;;20.58;4.47;;;16.90;99.90;;;;;;4220666;28;20040;-83
2023/05/14 08:09:29;;;;;;;9.48;4.68;;;17.10;99.90;;;;;;4232846;28;20044;-84
2023/05/14 08:11:30;;;;;;;15.68;5.38;;;17.20;99.90;;;;;;4237477;27;20047;-84
2023/05/14 08:13:32;;;;;;;15.35;3.97;;;17.40;99.90;;;;;;4238495;27;20042;-84
2023/05/14 08:15:32;;;;;;;10.63;4.15;;;17.50;99.90;;;;;;4224379;28;20052;-84
2023/05/14 08:17:33;;;;;;;11.13;3.90;;;17.70;99.90;;;;;;4240428;27;20035;-84
2023/05/14 08:19:34;;;;;;;10.02;4.00;;;17.90;99.90;;;;;;4241597;27;20128;-83
2023/05/14 08:21:35;;;;;;;11.93;4.90;;;18.10;99.90;;;;;;4239755;27;20521;-83
2023/05/14 08:23:36;;;;;;;9.95;4.05;;;18.40;99.90;;;;;;4244176;27;20055;-83
2023/05/14 08:25:36;;;;;;;8.50;3.70;;;18.60;99.90;;;;;;4225263;28;20066;-83
2023/05/14 08:27:38;;;;;;;8.25;3.88;;;18.80;99.90;;;;;;4234293;28;20086;-85
2023/05/14 08:29:40;;;;;;;11.63;3.63;;;19.00;99.90;;;;;;4234410;28;20487;-83
2023/05/14 08:31:41;;;;;;;15.10;4.53;;;19.10;99.90;;;;;;4241371;27;20163;-82
2023/05/14 08:33:41;;;;;;;24.52;4.85;;;19.20;99.90;;;;;;4240401;27;20044;-82
2023/05/14 08:35:42;;;;;;;8.30;3.67;;;19.30;99.90;;;;;;4240546;27;20053;-82
2023/05/14 08:37:43;;;;;;;17.02;5.45;;;19.40;99.90;;;;;;4248214;27;20070;-82
2023/05/14 08:39:43;;;;;;;7.13;3.88;;;19.50;99.90;;;;;;4249651;27;20039;-83
2023/05/14 08:41:44;;;;;;;10.00;3.88;;;19.60;99.90;;;;;;4235981;28;20044;-83
2023/05/14 08:44:01;;;;;;;14.45;5.13;;;19.60;99.90;;;;;;4232596;28;20051;-83
2023/05/14 08:46:06;;;;;;;11.13;3.22;;;19.70;99.90;;;;;;4233888;28;20484;-83
2023/05/14 08:48:11;;;;;;;12.32;4.13;;;19.50;99.90;;;;;;4227438;28;20059;-81
2023/05/14 08:50:12;;;;;;;7.68;3.45;;;19.60;99.90;;;;;;4250250;28;20099;-82
2023/05/14 08:52:14;;;;;;;8.68;3.70;;;19.70;99.90;;;;;;4243987;28;20490;-85
2023/05/14 08:54:16;;;;;;;8.63;3.60;;;19.80;99.90;;;;;;4244115;27;20039;-83
2023/05/14 08:56:18;;;;;;;9.00;3.45;;;19.90;99.90;;;;;;4235393;28;20067;-83
2023/05/14 08:58:19;;;;;;;11.23;3.80;;;20.10;99.90;;;;;;4251646;27;20057;-83
2023/05/14 09:00:21;;;;;;;13.35;4.28;;;20.40;99.90;;;;;;4252650;27;20127;-84
2023/05/14 09:02:26;;;;;;;14.57;4.05;;;20.60;99.90;;;;;;4251744;27;20052;-83
2023/05/14 09:04:27;;;;;;;5.72;3.50;;;20.90;99.90;;;;;;4252259;27;20082;-84
2023/05/14 09:06:28;;;;;;;12.18;3.72;;;21.00;99.90;;;;;;4252081;27;20483;-84
2023/05/14 09:08:29;;;;;;;13.27;4.75;;;21.10;99.90;;;;;;4232423;28;20507;-84
2023/05/14 09:10:31;;;;;;;9.15;3.72;;;21.10;99.90;;;;;;4238717;27;20039;-83
2023/05/14 09:12:32;;;;;;;9.60;3.45;;;21.00;99.90;;;;;;4234703;28;20031;-84
2023/05/14 09:14:32;;;;;;;10.50;3.83;;;21.00;99.90;;;;;;4235374;28;20093;-82
2023/05/14 09:16:35;;;;;;;5.80;3.20;;;21.00;99.90;;;;;;4234509;28;20044;-82
2023/05/14 09:18:36;;;;;;;9.23;3.50;;;21.10;99.90;;;;;;4235035;28;20599;-82
2023/05/14 09:20:37;;;;;;;9.50;4.05;;;21.20;99.90;;;;;;4216711;28;20076;-82
2023/05/14 09:22:38;;;;;;;10.18;3.80;;;21.40;99.90;;;;;;4216431;28;20048;-82
2023/05/14 09:24:40;;;;;;;11.75;3.85;;;21.50;99.90;;;;;;4234945;28;20110;-82
2023/05/14 09:26:41;;;;;;;9.75;4.53;;;21.80;99.90;;;;;;4215643;28;20048;-80
2023/05/14 09:28:42;;;;;;;8.18;3.80;;;21.80;99.90;;;;;;4236581;27;20039;-83
2023/05/14 09:30:50;;;;;;;13.10;3.65;;;21.90;99.90;;;;;;4204344;28;20052;-82
2023/05/14 09:32:54;;;;;;;12.23;3.90;;;22.10;99.90;;;;;;4215918;28;20083;-83
2023/05/14 09:34:55;;;;;;;9.18;4.32;;;22.30;99.90;;;;;;4234133;28;20051;-83
2023/05/14 09:37:01;;;;;;;9.52;3.60;;;22.40;99.90;;;;;;4216404;28;20095;-83
2023/05/14 09:39:05;;;;;;;9.43;4.10;;;22.70;99.90;;;;;;4216754;28;20140;-82
2023/05/14 09:41:06;;;;;;;9.73;3.80;;;23.00;99.90;;;;;;4234474;28;20054;-82
2023/05/14 09:43:08;;;;;;;11.23;4.22;;;23.20;99.90;;;;;;4217221;28;20424;-82
2023/05/14 09:45:09;;;;;;;9.88;3.97;;;23.40;99.90;;;;;;4216430;28;20055;-82
2023/05/14 09:47:10;;;;;;;10.90;3.60;;;;;;;;;;4238330;27;20043;-82
2023/05/14 09:49:12;;;;;;;7.72;4.35;;;23.50;99.90;;;;;;4234685;28;20452;-82
2023/05/14 09:51:12;;;;;;;6.13;3.65;;;24.00;99.90;;;;;;4234129;28;20391;-82
2023/05/14 09:53:13;;;;;;;9.25;4.30;;;24.00;99.90;;;;;;4216157;28;20122;-82
2023/05/14 09:55:15;;;;;;;11.75;4.30;;;24.10;99.90;;;;;;4234149;28;20040;-82
2023/05/14 09:57:15;;;;;;;9.68;5.05;;;24.00;99.90;;;;;;4216077;28;20508;-82
2023/05/14 09:59:16;;;;;;;9.15;4.32;;;24.00;99.90;;;;;;4233184;28;20096;-82
2023/05/14 10:01:19;;;;;;;8.90;3.67;;;24.20;99.90;;;;;;4233829;28;20499;-83
2023/05/14 10:03:21;;;;;;;10.38;3.22;;;24.50;99.90;;;;;;4215917;28;20048;-83
2023/05/14 10:05:22;;;;;;;10.70;3.50;;;24.80;99.90;;;;;;4237465;27;20096;-82
2023/05/14 10:07:28;;;;;;;14.85;4.57;;;25.00;99.90;;;;;;4232552;28;20061;-83
2023/05/14 10:09:29;;;;;;;6.93;3.53;;;25.00;99.90;;;;;;4234166;28;20050;-82
2023/05/14 10:11:33;;;;;;;16.52;5.05;;;25.20;99.90;;;;;;4234374;28;20075;-82
2023/05/14 10:13:45;;;;;;;12.55;4.22;;;25.30;99.90;;;;;;4233873;27;20040;-82
2023/05/14 10:16:20;;;;;;;10.45;4.57;;;25.10;99.90;;;;;;4215173;28;20069;-83
2023/05/14 10:18:23;;;;;;;8.95;4.20;;;25.00;99.90;;;;;;4234136;28;20065;-83
2023/05/14 10:20:25;;;;;;;8.77;4.30;;;25.00;99.90;;;;;;4216390;28;20054;-82
2023/05/14 10:22:32;;;;;;;7.10;3.78;;;25.10;99.90;;;;;;4233681;28;20044;-83
2023/05/14 10:24:34;;;;;;;14.40;3.88;;;25.10;99.90;;;;;;4237238;27;20546;-83
2023/05/14 10:26:37;;;;;;;6.40;4.07;;;25.10;99.90;;;;;;4241476;27;20035;-83
2023/05/14 10:28:38;;;;;;;7.57;4.32;;;25.00;99.90;;;;;;4249830;27;20047;-83